sensor_id;sensor_type;location;lat;lon;timestamp;pressure;altitude;pressure_sealevel;temperature;humidity
70943;BME280;59154;51.970;5.650;2023-03-04T00:00:05;102600;;;7.15487;75.4
70943;BME280;59154;51.970;5.650;2023-03-04T00:05:03;102600;;;7.28709;75.2
70943;BME280;59154;51.970;5.650;2023-03-04T00:10:03;102600;;;7.06333;76.1
70943;BME280;59154;51.970;5.650;2023-03-04T00:15:03;102600;;;7.27184;75.5
70943;BME280;59154;51.970;5.650;2023-03-04T00:20:04;102600;;;7.18538;75.8
70943;BME280;59154;51.970;5.650;2023-03-04T00:25:03;102600;;;7.53628;75.1
70943;BME280;59154;51.970;5.650;2023-03-04T00:30:04;102600;;;7.46508;75.4
70943;BME280;59154;51.970;5.650;2023-03-04T00:35:02;102600;;;7.29726;75.8
70943;BME280;59154;51.970;5.650;2023-03-04T00:40:04;102600;;;7.49559;75.3
70943;BME280;59154;51.970;5.650;2023-03-04T00:45:04;102600;;;7.17013;76.1
70943;BME280;59154;51.970;5.650;2023-03-04T00:50:04;102600;;;6.865;76.8
70943;BME280;59154;51.970;5.650;2023-03-04T00:55:03;102600;;;7.01248;76.7
70943;BME280;59154;51.970;5.650;2023-03-04T01:00:04;102600;;;7.04299;76.9
70943;BME280;59154;51.970;5.650;2023-03-04T01:05:02;102600;;;7.08368;76.9
70943;BME280;59154;51.970;5.650;2023-03-04T01:10:03;102600;;;7.20064;76.8
70943;BME280;59154;51.970;5.650;2023-03-04T01:15:03;102600;;;7.06842;76.9
70943;BME280;59154;51.970;5.650;2023-03-04T01:20:05;102600;;;7.13961;76.9
70943;BME280;59154;51.970;5.650;2023-03-04T01:25:03;102600;;;7.36337;77.0
70943;BME280;59154;51.970;5.650;2023-03-04T01:30:04;102600;;;7.30743;77.2
70943;BME280;59154;51.970;5.650;2023-03-04T01:35:03;102600;;;7.27184;77.8
70943;BME280;59154;51.970;5.650;2023-03-04T01:40:04;102600;;;7.1091;78.6
70943;BME280;59154;51.970;5.650;2023-03-04T01:45:04;102600;;;7.13453;77.7
70943;BME280;59154;51.970;5.650;2023-03-04T01:50:10;102600;;;7.0735;77.7
70943;BME280;59154;51.970;5.650;2023-03-04T01:55:08;102600;;;7.04808;77.4
70943;BME280;59154;51.970;5.650;2023-03-04T02:00:18;102600;;;7.01248;76.9
70943;BME280;59154;51.970;5.650;2023-03-04T02:05:02;102600;;;6.9006;77.3
70943;BME280;59154;51.970;5.650;2023-03-04T02:10:03;102500;;;6.92603;77.5
70943;BME280;59154;51.970;5.650;2023-03-04T02:15:03;102500;;;7.0735;77.3
70943;BME280;59154;51.970;5.650;2023-03-04T02:20:13;102500;;;7.06333;77.8
70943;BME280;59154;51.970;5.650;2023-03-04T02:25:05;102500;;;6.92603;77.4
70943;BME280;59154;51.970;5.650;2023-03-04T02:30:03;102500;;;7.03282;76.5
70943;BME280;59154;51.970;5.650;2023-03-04T02:35:04;102500;;;7.01248;75.9
70943;BME280;59154;51.970;5.650;2023-03-04T02:40:05;102500;;;6.95146;76.1
70943;BME280;59154;51.970;5.650;2023-03-04T02:45:02;102500;;;7.03791;76.0
70943;BME280;59154;51.970;5.650;2023-03-04T02:50:03;102500;;;6.92094;75.8
70943;BME280;59154;51.970;5.650;2023-03-04T02:55:03;102500;;;6.92603;75.5
70943;BME280;59154;51.970;5.650;2023-03-04T03:00:04;102500;;;6.80398;76.2
70943;BME280;59154;51.970;5.650;2023-03-04T03:05:02;102500;;;6.88535;76.2
70943;BME280;59154;51.970;5.650;2023-03-04T03:10:03;102500;;;7.02265;76.1
70943;BME280;59154;51.970;5.650;2023-03-04T03:15:03;102500;;;7.27184;75.6
70943;BME280;59154;51.970;5.650;2023-03-04T03:20:04;102500;;;7.30235;75.9
70943;BME280;59154;51.970;5.650;2023-03-04T03:25:02;102500;;;7.17521;77.0
70943;BME280;59154;51.970;5.650;2023-03-04T03:30:04;102500;;;7.25658;77.0
70943;BME280;59154;51.970;5.650;2023-03-04T03:35:03;102500;;;7.17521;77.4
70943;BME280;59154;51.970;5.650;2023-03-04T03:40:04;102500;;;7.2159;77.2
70943;BME280;59154;51.970;5.650;2023-03-04T03:45:03;102500;;;7.06333;77.3
70943;BME280;59154;51.970;5.650;2023-03-04T03:50:04;102500;;;7.20064;76.4
70943;BME280;59154;51.970;5.650;2023-03-04T03:55:03;102500;;;7.01757;75.9
70943;BME280;59154;51.970;5.650;2023-03-04T04:00:04;102500;;;6.89552;75.2
70943;BME280;59154;51.970;5.650;2023-03-04T04:05:03;102500;;;6.81415;75.9
70943;BME280;59154;51.970;5.650;2023-03-04T04:10:04;102500;;;6.89043;75.7
70943;BME280;59154;51.970;5.650;2023-03-04T04:15:03;102500;;;7.1803;75.1
70943;BME280;59154;51.970;5.650;2023-03-04T04:20:06;102500;;;7.13961;75.5
70943;BME280;59154;51.970;5.650;2023-03-04T04:25:03;102500;;;6.9362;76.5
70943;BME280;59154;51.970;5.650;2023-03-04T04:30:04;102500;;;7.0735;76.3
70943;BME280;59154;51.970;5.650;2023-03-04T04:35:03;102500;;;7.03282;76.8
70943;BME280;59154;51.970;5.650;2023-03-04T04:40:03;102500;;;7.10402;76.8
70943;BME280;59154;51.970;5.650;2023-03-04T04:45:03;102500;;;6.88026;77.1
70943;BME280;59154;51.970;5.650;2023-03-04T04:50:03;102500;;;6.79381;77.8
70943;BME280;59154;51.970;5.650;2023-03-04T04:55:02;102500;;;6.72261;78.6
70943;BME280;59154;51.970;5.650;2023-03-04T05:00:04;102500;;;6.865;78.0
70943;BME280;59154;51.970;5.650;2023-03-04T05:05:02;102500;;;6.99214;77.8
70943;BME280;59154;51.970;5.650;2023-03-04T05:10:03;102500;;;6.85483;78.2
70943;BME280;59154;51.970;5.650;2023-03-04T05:15:03;102500;;;6.87009;78.0
70943;BME280;59154;51.970;5.650;2023-03-04T05:20:04;102500;;;6.63616;78.5
70943;BME280;59154;51.970;5.650;2023-03-04T05:25:02;102500;;;7.02265;77.7
70943;BME280;59154;51.970;5.650;2023-03-04T05:30:03;102500;;;6.84466;77.7
70943;BME280;59154;51.970;5.650;2023-03-04T05:35:03;102500;;;7.01757;76.7
70943;BME280;59154;51.970;5.650;2023-03-04T05:40:04;102500;;;6.96671;76.9
70943;BME280;59154;51.970;5.650;2023-03-04T05:45:03;102500;;;6.83449;78.6
70943;BME280;59154;51.970;5.650;2023-03-04T05:50:03;102500;;;6.89552;78.7
70943;BME280;59154;51.970;5.650;2023-03-04T05:55:03;102500;;;6.9006;78.7
70943;BME280;59154;51.970;5.650;2023-03-04T06:00:04;102500;;;6.95654;78.6
70943;BME280;59154;51.970;5.650;2023-03-04T06:05:04;102500;;;6.88535;79.8
70943;BME280;59154;51.970;5.650;2023-03-04T06:10:04;102500;;;7.03791;79.5
70943;BME280;59154;51.970;5.650;2023-03-04T06:15:02;102500;;;6.94637;79.7
70943;BME280;59154;51.970;5.650;2023-03-04T06:20:04;102500;;;6.92603;79.7
70943;BME280;59154;51.970;5.650;2023-03-04T06:25:02;102500;;;6.95146;79.7
70943;BME280;59154;51.970;5.650;2023-03-04T06:30:03;102500;;;6.9718;79.8
70943;BME280;59154;51.970;5.650;2023-03-04T06:35:03;102500;;;7.08368;79.4
70943;BME280;59154;51.970;5.650;2023-03-04T06:40:03;102500;;;7.03791;79.4
70943;BME280;59154;51.970;5.650;2023-03-04T06:45:03;102500;;;7.14979;79.4
70943;BME280;59154;51.970;5.650;2023-03-04T06:50:04;102500;;;7.2159;79.4
70943;BME280;59154;51.970;5.650;2023-03-04T06:55:03;102500;;;7.38371;79.1
70943;BME280;59154;51.970;5.650;2023-03-04T07:00:04;102500;;;7.44982;79.2
70943;BME280;59154;51.970;5.650;2023-03-04T07:05:03;102500;;;7.43965;79.2
70943;BME280;59154;51.970;5.650;2023-03-04T07:10:03;102500;;;7.37354;79.9
70943;BME280;59154;51.970;5.650;2023-03-04T07:15:03;102500;;;7.33286;80.3
70943;BME280;59154;51.970;5.650;2023-03-04T07:20:03;102500;;;7.36846;80.6
70943;BME280;59154;51.970;5.650;2023-03-04T07:25:03;102500;;;6.92094;84.5
70943;BME280;59154;51.970;5.650;2023-03-04T07:30:04;102500;;;7.00231;85.0
70943;BME280;59154;51.970;5.650;2023-03-04T07:35:02;102500;;;6.90569;86.1
70943;BME280;59154;51.970;5.650;2023-03-04T07:40:04;102500;;;7.30235;85.5
70943;BME280;59154;51.970;5.650;2023-03-04T07:45:03;102500;;;7.45491;85.5
70943;BME280;59154;51.970;5.650;2023-03-04T07:50:04;102500;;;7.34303;85.1
70943;BME280;59154;51.970;5.650;2023-03-04T07:55:03;102500;;;7.57696;84.6
70943;BME280;59154;51.970;5.650;2023-03-04T08:00:04;102500;;;7.57696;84.9
70943;BME280;59154;51.970;5.650;2023-03-04T08:05:02;102500;;;7.73969;84.2
70943;BME280;59154;51.970;5.650;2023-03-04T08:10:04;102500;;;7.87192;84.3
70943;BME280;59154;51.970;5.650;2023-03-04T08:15:03;102500;;;7.98888;83.7
70943;BME280;59154;51.970;5.650;2023-03-04T08:20:03;102600;;;8.01939;82.7
70943;BME280;59154;51.970;5.650;2023-03-04T08:25:03;102600;;;8.10585;81.2
70943;BME280;59154;51.970;5.650;2023-03-04T08:30:03;102500;;;8.17704;82.0
70943;BME280;59154;51.970;5.650;2023-03-04T08:35:03;102500;;;8.10585;82.5
70943;BME280;59154;51.970;5.650;2023-03-04T08:40:04;102500;;;8.09059;82.6
70943;BME280;59154;51.970;5.650;2023-03-04T08:45:03;102600;;;8.28892;82.2
70943;BME280;59154;51.970;5.650;2023-03-04T08:50:03;102600;;;8.31944;81.7
70943;BME280;59154;51.970;5.650;2023-03-04T08:55:02;102600;;;8.30418;81.1
70943;BME280;59154;51.970;5.650;2023-03-04T09:00:04;102600;;;8.18721;81.1
70943;BME280;59154;51.970;5.650;2023-03-04T09:05:03;102600;;;8.18721;81.7
70943;BME280;59154;51.970;5.650;2023-03-04T09:10:04;102500;;;8.05499;82.7
70943;BME280;59154;51.970;5.650;2023-03-04T09:15:03;102500;;;8.32961;81.4
70943;BME280;59154;51.970;5.650;2023-03-04T09:20:04;102500;;;8.42114;81.8
70943;BME280;59154;51.970;5.650;2023-03-04T09:25:03;102500;;;8.19738;85.5
70943;BME280;59154;51.970;5.650;2023-03-04T09:30:03;102500;;;8.42623;85.4
70943;BME280;59154;51.970;5.650;2023-03-04T09:35:02;102500;;;8.30418;85.7
70943;BME280;59154;51.970;5.650;2023-03-04T09:40:04;102500;;;8.24824;86.7
70943;BME280;59154;51.970;5.650;2023-03-04T09:45:04;102500;;;8.09059;86.7
70943;BME280;59154;51.970;5.650;2023-03-04T09:50:06;102500;;;8.59405;85.7
70943;BME280;59154;51.970;5.650;2023-03-04T09:55:11;102500;;;8.21773;86.6
70943;BME280;59154;51.970;5.650;2023-03-04T10:00:10;102500;;;8.26858;85.8
70943;BME280;59154;51.970;5.650;2023-03-04T10:05:05;102500;;;8.68559;84.7
70943;BME280;59154;51.970;5.650;2023-03-04T10:10:05;102500;;;8.74153;83.3
70943;BME280;59154;51.970;5.650;2023-03-04T10:15:05;102500;;;9.23482;80.8
70943;BME280;59154;51.970;5.650;2023-03-04T10:20:08;102500;;;8.8941;81.2
70943;BME280;59154;51.970;5.650;2023-03-04T10:25:15;102500;;;9.23482;80.4
70943;BME280;59154;51.970;5.650;2023-03-04T10:30:13;102500;;;9.13311;80.7
70943;BME280;59154;51.970;5.650;2023-03-04T10:35:10;102500;;;9.12294;80.7
70943;BME280;59154;51.970;5.650;2023-03-04T10:40:04;102500;;;9.21957;81.8
70943;BME280;59154;51.970;5.650;2023-03-04T10:45:03;102500;;;9.53487;81.6
70943;BME280;59154;51.970;5.650;2023-03-04T10:50:04;102500;;;9.67218;80.2
70943;BME280;59154;51.970;5.650;2023-03-04T10:55:05;102500;;;9.60607;79.9
70943;BME280;59154;51.970;5.650;2023-03-04T11:00:23;102500;;;9.20431;82.3
70943;BME280;59154;51.970;5.650;2023-03-04T11:05:16;102500;;;9.1738;84.8
70943;BME280;59154;51.970;5.650;2023-03-04T11:10:13;102500;;;9.15346;85.7
70943;BME280;59154;51.970;5.650;2023-03-04T11:15:11;102500;;;9.28568;84.2
70943;BME280;59154;51.970;5.650;2023-03-04T11:20:16;102500;;;9.42299;84.3
70943;BME280;59154;51.970;5.650;2023-03-04T11:25:06;102500;;;9.72304;81.4
70943;BME280;59154;51.970;5.650;2023-03-04T11:30:15;102500;;;9.82983;81.3
70943;BME280;59154;51.970;5.650;2023-03-04T11:35:11;102500;;;9.96714;80.1
70943;BME280;59154;51.970;5.650;2023-03-04T11:40:07;102500;;;10.20108;78.6
70943;BME280;59154;51.970;5.650;2023-03-04T11:45:02;102500;;;9.77389;78.7
70943;BME280;59154;51.970;5.650;2023-03-04T11:50:42;102400;;;9.66201;79.8
70943;BME280;59154;51.970;5.650;2023-03-04T11:55:16;102500;;;9.55521;83.0
70943;BME280;59154;51.970;5.650;2023-03-04T12:00:19;102500;;;9.31619;86.1
70943;BME280;59154;51.970;5.650;2023-03-04T12:05:15;102500;;;9.45859;86.8
70943;BME280;59154;51.970;5.650;2023-03-04T12:10:12;102500;;;9.20431;85.5
70943;BME280;59154;51.970;5.650;2023-03-04T12:15:12;102500;;;9.20431;84.1
70943;BME280;59154;51.970;5.650;2023-03-04T12:20:15;102400;;;9.68235;84.1
70943;BME280;59154;51.970;5.650;2023-03-04T12:25:18;102400;;;9.65692;83.6
70943;BME280;59154;51.970;5.650;2023-03-04T12:30:05;102400;;;10.17056;81.1
70943;BME280;59154;51.970;5.650;2023-03-04T12:35:22;102400;;;10.38924;79.3
70943;BME280;59154;51.970;5.650;2023-03-04T12:40:16;102400;;;10.24685;78.6
70943;BME280;59154;51.970;5.650;2023-03-04T12:45:14;102400;;;10.31296;77.2
70943;BME280;59154;51.970;5.650;2023-03-04T12:50:21;102400;;;9.74846;79.9
70943;BME280;59154;51.970;5.650;2023-03-04T12:55:08;102400;;;9.34671;79.2
70943;BME280;59154;51.970;5.650;2023-03-04T13:00:15;102400;;;9.00598;78.1
70943;BME280;59154;51.970;5.650;2023-03-04T13:05:18;102400;;;9.36705;77.1
70943;BME280;59154;51.970;5.650;2023-03-04T13:10:07;102400;;;9.70778;76.0
70943;BME280;59154;51.970;5.650;2023-03-04T13:15:29;102400;;;9.43316;75.2
70943;BME280;59154;51.970;5.650;2023-03-04T13:20:18;102400;;;9.96206;73.5
70943;BME280;59154;51.970;5.650;2023-03-04T13:25:29;102400;;;9.97731;71.6
70943;BME280;59154;51.970;5.650;2023-03-04T13:30:07;102400;;;10.20108;70.3
70943;BME280;59154;51.970;5.650;2023-03-04T13:35:46;102400;;;10.53164;70.0
70943;BME280;59154;51.970;5.650;2023-03-04T13:40:36;102400;;;9.81458;70.2
70943;BME280;59154;51.970;5.650;2023-03-04T13:45:03;102400;;;9.55013;72.3
70943;BME280;59154;51.970;5.650;2023-03-04T13:50:26;102400;;;9.29077;73.5
70943;BME280;59154;51.970;5.650;2023-03-04T13:55:37;102400;;;9.57047;73.2
70943;BME280;59154;51.970;5.650;2023-03-04T14:00:05;102400;;;9.81458;73.5
70943;BME280;59154;51.970;5.650;2023-03-04T14:05:02;102400;;;9.73829;73.5
70943;BME280;59154;51.970;5.650;2023-03-04T14:10:05;102400;;;9.39248;76.1
70943;BME280;59154;51.970;5.650;2023-03-04T14:15:04;102400;;;9.04157;78.4
70943;BME280;59154;51.970;5.650;2023-03-04T14:20:05;102400;;;9.16363;77.5
70943;BME280;59154;51.970;5.650;2023-03-04T14:25:06;102400;;;9.42807;75.8
70943;BME280;59154;51.970;5.650;2023-03-04T14:30:06;102400;;;9.32636;75.6
70943;BME280;59154;51.970;5.650;2023-03-04T14:35:05;102300;;;9.62132;73.7
70943;BME280;59154;51.970;5.650;2023-03-04T14:40:04;102300;;;9.40265;72.3
70943;BME280;59154;51.970;5.650;2023-03-04T14:45:03;102300;;;9.50944;70.8
70943;BME280;59154;51.970;5.650;2023-03-04T14:50:05;102300;;;9.06192;69.4
70943;BME280;59154;51.970;5.650;2023-03-04T14:55:18;102300;;;9.13311;67.4
70943;BME280;59154;51.970;5.650;2023-03-04T15:00:36;102300;;;9.29585;67.8
70943;BME280;59154;51.970;5.650;2023-03-04T15:05:09;102300;;;9.21448;67.1
70943;BME280;59154;51.970;5.650;2023-03-04T15:10:06;102300;;;9.28568;67.4
70943;BME280;59154;51.970;5.650;2023-03-04T15:15:28;102300;;;9.4535;67.0
70943;BME280;59154;51.970;5.650;2023-03-04T15:20:23;102300;;;9.90103;66.2
70943;BME280;59154;51.970;5.650;2023-03-04T15:25:02;102300;;;9.40265;66.8
70943;BME280;59154;51.970;5.650;2023-03-04T15:30:06;102300;;;9.36196;66.9
70943;BME280;59154;51.970;5.650;2023-03-04T15:35:02;102300;;;9.15346;68.4
70943;BME280;59154;51.970;5.650;2023-03-04T15:40:11;102300;;;9.11277;69.4
70943;BME280;59154;51.970;5.650;2023-03-04T15:45:11;102300;;;8.83815;72.4
70943;BME280;59154;51.970;5.650;2023-03-04T15:50:03;102300;;;9.01106;72.6
70943;BME280;59154;51.970;5.650;2023-03-04T15:55:02;102300;;;8.95004;72.8
70943;BME280;59154;51.970;5.650;2023-03-04T16:00:04;102300;;;9.32636;72.1
70943;BME280;59154;51.970;5.650;2023-03-04T16:05:02;102300;;;8.81781;73.2
70943;BME280;59154;51.970;5.650;2023-03-04T16:10:06;102300;;;8.88392;72.9
70943;BME280;59154;51.970;5.650;2023-03-04T16:15:11;102300;;;8.85341;72.5
70943;BME280;59154;51.970;5.650;2023-03-04T16:20:04;102300;;;8.60931;72.5
70943;BME280;59154;51.970;5.650;2023-03-04T16:25:03;102300;;;8.88901;71.6
70943;BME280;59154;51.970;5.650;2023-03-04T16:30:03;102300;;;8.7161;71.5
70943;BME280;59154;51.970;5.650;2023-03-04T16:35:03;102300;;;8.56354;71.9
70943;BME280;59154;51.970;5.650;2023-03-04T16:40:04;102300;;;8.38555;72.4
70943;BME280;59154;51.970;5.650;2023-03-04T16:45:03;102300;;;8.49743;71.4
70943;BME280;59154;51.970;5.650;2023-03-04T16:50:03;102300;;;8.33978;72.1
70943;BME280;59154;51.970;5.650;2023-03-04T16:55:02;102300;;;8.07533;71.8
70943;BME280;59154;51.970;5.650;2023-03-04T17:00:04;102300;;;8.13636;72.9
70943;BME280;59154;51.970;5.650;2023-03-04T17:05:03;102300;;;8.30418;72.6
70943;BME280;59154;51.970;5.650;2023-03-04T17:10:04;102300;;;8.18721;73.2
70943;BME280;59154;51.970;5.650;2023-03-04T17:15:03;102300;;;8.37029;72.9
70943;BME280;59154;51.970;5.650;2023-03-04T17:20:04;102300;;;8.25841;73.3
70943;BME280;59154;51.970;5.650;2023-03-04T17:25:03;102300;;;8.14653;73.0
70943;BME280;59154;51.970;5.650;2023-03-04T17:30:04;102300;;;8.22281;72.5
70943;BME280;59154;51.970;5.650;2023-03-04T17:35:03;102300;;;8.35503;71.8
70943;BME280;59154;51.970;5.650;2023-03-04T17:40:05;102300;;;8.1211;72.3
70943;BME280;59154;51.970;5.650;2023-03-04T17:45:03;102300;;;7.93803;72.0
70943;BME280;59154;51.970;5.650;2023-03-04T17:50:03;102300;;;7.67358;72.9
70943;BME280;59154;51.970;5.650;2023-03-04T17:55:03;102300;;;7.96345;72.7
70943;BME280;59154;51.970;5.650;2023-03-04T18:00:05;102300;;;7.9126;73.5
70943;BME280;59154;51.970;5.650;2023-03-04T18:05:04;102300;;;7.49559;75.1
70943;BME280;59154;51.970;5.650;2023-03-04T18:10:04;102300;;;7.47525;74.0
70943;BME280;59154;51.970;5.650;2023-03-04T18:15:03;102300;;;7.36337;74.6
70943;BME280;59154;51.970;5.650;2023-03-04T18:20:03;102300;;;7.26166;75.0
70943;BME280;59154;51.970;5.650;2023-03-04T18:25:02;102300;;;7.48034;75.5
70943;BME280;59154;51.970;5.650;2023-03-04T18:30:03;102300;;;7.06333;77.0
70943;BME280;59154;51.970;5.650;2023-03-04T18:35:03;102300;;;7.32269;76.7
70943;BME280;59154;51.970;5.650;2023-03-04T18:40:05;102300;;;7.53628;76.1
70943;BME280;59154;51.970;5.650;2023-03-04T18:45:03;102300;;;7.50068;76.1
70943;BME280;59154;51.970;5.650;2023-03-04T18:50:02;102300;;;7.51594;76.2
70943;BME280;59154;51.970;5.650;2023-03-04T18:55:04;102300;;;7.36846;75.8
70943;BME280;59154;51.970;5.650;2023-03-04T19:00:04;102300;;;7.46;75.8
70943;BME280;59154;51.970;5.650;2023-03-04T19:05:05;102300;;;7.24132;76.6
70943;BME280;59154;51.970;5.650;2023-03-04T19:10:04;102300;;;7.22607;77.1
70943;BME280;59154;51.970;5.650;2023-03-04T19:15:03;102300;;;7.29218;77.1
70943;BME280;59154;51.970;5.650;2023-03-04T19:20:05;102300;;;7.27692;77.2
70943;BME280;59154;51.970;5.650;2023-03-04T19:25:03;102300;;;7.32269;77.5
70943;BME280;59154;51.970;5.650;2023-03-04T19:30:04;102300;;;7.37863;77.6
70943;BME280;59154;51.970;5.650;2023-03-04T19:35:03;102300;;;7.1447;78.2
70943;BME280;59154;51.970;5.650;2023-03-04T19:40:05;102300;;;7.23115;78.2
70943;BME280;59154;51.970;5.650;2023-03-04T19:45:03;102300;;;7.29726;78.2
70943;BME280;59154;51.970;5.650;2023-03-04T19:50:05;102300;;;7.30743;78.0
70943;BME280;59154;51.970;5.650;2023-03-04T19:55:03;102300;;;7.1447;78.5
70943;BME280;59154;51.970;5.650;2023-03-04T20:00:03;102300;;;7.06842;79.1
70943;BME280;59154;51.970;5.650;2023-03-04T20:05:04;102300;;;7.12436;79.1
70943;BME280;59154;51.970;5.650;2023-03-04T20:10:04;102300;;;7.11927;79.1
70943;BME280;59154;51.970;5.650;2023-03-04T20:15:05;102300;;;7.16504;79.2
70943;BME280;59154;51.970;5.650;2023-03-04T20:20:04;102300;;;7.05825;79.2
70943;BME280;59154;51.970;5.650;2023-03-04T20:25:03;102300;;;7.1091;79.1
70943;BME280;59154;51.970;5.650;2023-03-04T20:30:03;102300;;;7.04808;79.3
70943;BME280;59154;51.970;5.650;2023-03-04T20:35:02;102300;;;7.09385;79.4
70943;BME280;59154;51.970;5.650;2023-03-04T20:40:04;102300;;;7.08876;79.5
70943;BME280;59154;51.970;5.650;2023-03-04T20:45:04;102300;;;6.95654;80.1
70943;BME280;59154;51.970;5.650;2023-03-04T20:50:03;102300;;;7.05825;80.3
70943;BME280;59154;51.970;5.650;2023-03-04T20:55:02;102300;;;6.98197;80.3
70943;BME280;59154;51.970;5.650;2023-03-04T21:00:05;102300;;;6.79381;80.4
70943;BME280;59154;51.970;5.650;2023-03-04T21:05:03;102300;;;6.865;80.5
70943;BME280;59154;51.970;5.650;2023-03-04T21:10:03;102300;;;6.84466;80.2
70943;BME280;59154;51.970;5.650;2023-03-04T21:15:03;102300;;;6.81924;80.7
70943;BME280;59154;51.970;5.650;2023-03-04T21:20:05;102300;;;6.78364;81.0
70943;BME280;59154;51.970;5.650;2023-03-04T21:25:03;102300;;;6.72261;81.1
70943;BME280;59154;51.970;5.650;2023-03-04T21:30:04;102300;;;6.74295;81.1
70943;BME280;59154;51.970;5.650;2023-03-04T21:35:02;102300;;;6.6921;81.4
70943;BME280;59154;51.970;5.650;2023-03-04T21:40:04;102300;;;6.6565;81.5
70943;BME280;59154;51.970;5.650;2023-03-04T21:45:03;102300;;;6.61582;82.3
70943;BME280;59154;51.970;5.650;2023-03-04T21:50:03;102300;;;6.63108;82.5
70943;BME280;59154;51.970;5.650;2023-03-04T21:55:03;102300;;;6.6921;82.3
70943;BME280;59154;51.970;5.650;2023-03-04T22:00:04;102300;;;6.77855;81.8
70943;BME280;59154;51.970;5.650;2023-03-04T22:05:02;102300;;;6.78364;82.0
70943;BME280;59154;51.970;5.650;2023-03-04T22:10:03;102300;;;6.77855;81.9
70943;BME280;59154;51.970;5.650;2023-03-04T22:15:02;102300;;;6.76838;82.0
70943;BME280;59154;51.970;5.650;2023-03-04T22:20:03;102300;;;6.68702;82.4
70943;BME280;59154;51.970;5.650;2023-03-04T22:25:02;102300;;;6.70736;82.8
70943;BME280;59154;51.970;5.650;2023-03-04T22:30:03;102300;;;6.61582;83.0
70943;BME280;59154;51.970;5.650;2023-03-04T22:35:02;102300;;;6.56497;83.2
70943;BME280;59154;51.970;5.650;2023-03-04T22:40:04;102300;;;6.63616;82.8
70943;BME280;59154;51.970;5.650;2023-03-04T22:45:03;102300;;;6.70736;83.1
70943;BME280;59154;51.970;5.650;2023-03-04T22:50:04;102300;;;6.6921;83.5
70943;BME280;59154;51.970;5.650;2023-03-04T22:55:03;102300;;;6.62599;83.9
70943;BME280;59154;51.970;5.650;2023-03-04T23:00:11;102300;;;6.57005;83.9
70943;BME280;59154;51.970;5.650;2023-03-04T23:05:02;102300;;;6.43783;84.3
70943;BME280;59154;51.970;5.650;2023-03-04T23:10:04;102200;;;6.28019;84.7
70943;BME280;59154;51.970;5.650;2023-03-04T23:15:05;102200;;;6.0666;85.8
70943;BME280;59154;51.970;5.650;2023-03-04T23:20:04;102200;;;6.17848;85.4
70943;BME280;59154;51.970;5.650;2023-03-04T23:25:03;102200;;;6.37681;84.7
70943;BME280;59154;51.970;5.650;2023-03-04T23:30:04;102200;;;6.40732;84.4
70943;BME280;59154;51.970;5.650;2023-03-04T23:35:02;102200;;;6.41749;84.4
70943;BME280;59154;51.970;5.650;2023-03-04T23:40:03;102200;;;6.38189;84.1
70943;BME280;59154;51.970;5.650;2023-03-04T23:45:03;102200;;;6.36664;84.2
70943;BME280;59154;51.970;5.650;2023-03-04T23:50:04;102200;;;6.38698;83.9
70943;BME280;59154;51.970;5.650;2023-03-04T23:55:03;102200;;;6.51411;83.3
